Time;durP1;ratioP1;P1;durP2;ratioP2;P2;SDS_P1;SDS_P2;PMS_P1;PMS_P2;Temp;Humidity;BMP_temperature;BMP_pressure;BME280_temperature;BME280_humidity;BME280_pressure;Samples;Min_cycle;Max_cycle;Signal;HPM_P1;HPM_P2
2023/02/14 00:00:00;;;;;;;44.00;22.50;;;;;;;8.29;67.03;103571.78;5038166;28;20072;-41
2023/02/14 00:02:25;;;;;;;47.92;23.23;;;;;;;8.26;66.93;103573.25;5042625;28;20032;-42
2023/02/14 00:04:51;;;;;;;50.92;24.08;;;;;;;8.29;67.00;103574.38;5044256;28;20526;-43
2023/02/14 00:07:16;;;;;;;47.53;24.83;;;;;;;8.33;67.00;103572.91;5040883;28;20048;-41
2023/02/14 00:09:41;;;;;;;46.33;22.92;;;;;;;8.35;67.03;103576.50;5042562;28;20107;-42
2023/02/14 00:12:07;;;;;;;48.50;24.48;;;;;;;8.31;66.84;103570.19;5038367;28;20465;-44
2023/02/14 00:17:16;;;;;;;49.35;24.77;;;;;;;8.15;66.90;103565.66;5038555;28;23648;-40
2023/02/14 00:19:42;;;;;;;43.15;22.88;;;;;;;8.08;66.86;103567.75;5046136;28;20033;-41
2023/02/14 00:22:07;;;;;;;46.80;23.42;;;;;;;7.98;66.88;103560.16;5042379;28;20040;-43
2023/02/14 00:24:32;;;;;;;45.60;23.17;;;;;;;7.94;66.80;103564.22;5046209;28;20068;-43
2023/02/14 00:26:58;;;;;;;45.75;22.83;;;;;;;7.92;67.14;103550.25;5043857;28;20116;-42
2023/02/14 00:29:26;;;;;;;44.70;22.27;;;;;;;7.92;67.09;103547.66;5046687;28;20048;-43
2023/02/14 00:31:52;;;;;;;45.30;23.48;;;;;;;7.87;66.90;103554.22;5047321;28;20406;-50
2023/02/14 00:34:18;;;;;;;47.30;23.13;;;;;;;7.99;67.23;103543.78;5043492;28;20037;-43
2023/02/14 00:36:44;;;;;;;49.72;23.17;;;;;;;8.10;67.64;103550.56;5046674;28;20037;-40
2023/02/14 00:39:12;;;;;;;48.15;23.70;;;;;;;8.22;68.00;103538.38;5042236;28;20044;-41
2023/02/14 00:41:38;;;;;;;51.42;24.30;;;;;;;8.35;68.12;103546.22;5045227;28;20048;-42
2023/02/14 00:44:04;;;;;;;46.97;23.92;;;;;;;8.42;67.67;103540.59;5042966;28;20037;-41
2023/02/14 00:46:29;;;;;;;50.28;24.55;;;;;;;8.45;67.98;103535.59;5046689;28;20052;-41
2023/02/14 00:48:55;;;;;;;52.88;23.92;;;;;;;8.50;67.98;103542.00;5045532;28;20502;-40
2023/02/14 00:51:21;;;;;;;49.78;23.63;;;;;;;8.54;67.51;103540.47;5046924;28;20490;-41
2023/02/14 00:53:48;;;;;;;48.90;24.55;;;;;;;8.42;67.60;103537.09;5047248;28;20032;-42
2023/02/14 00:56:14;;;;;;;47.33;23.83;;;;;;;8.38;67.59;103537.69;5043612;28;20068;-41
2023/02/14 00:58:40;;;;;;;48.20;23.63;;;;;;;8.34;67.34;103528.81;5047671;28;20506;-43
2023/02/14 01:01:06;;;;;;;47.10;22.83;;;;;;;8.33;67.56;103533.91;5043989;28;20068;-43
2023/02/14 01:03:32;;;;;;;48.10;24.40;;;;;;;8.33;67.65;103534.81;5046654;28;20076;-41
2023/02/14 01:05:58;;;;;;;49.47;23.67;;;;;;;8.37;67.82;103529.00;5042441;28;20029;-42
2023/02/14 01:08:24;;;;;;;47.45;23.38;;;;;;;8.37;67.80;103522.91;5044998;28;20459;-42
2023/02/14 01:10:49;;;;;;;52.33;24.80;;;;;;;8.42;67.93;103525.00;5044855;28;20037;-41
2023/02/14 01:13:15;;;;;;;46.90;23.35;;;;;;;8.45;67.79;103522.59;5040945;28;20045;-42
2023/02/14 01:15:44;;;;;;;47.83;22.70;;;;;;;8.50;68.03;103526.38;5044555;28;20490;-41
2023/02/14 01:18:10;;;;;;;46.58;23.20;;;;;;;8.52;69.01;103521.28;5040433;28;20040;-41
2023/02/14 01:20:35;;;;;;;50.45;24.33;;;;;;;8.57;68.28;103526.78;5044281;28;20045;-41
2023/02/14 01:23:01;;;;;;;48.25;23.58;;;;;;;8.53;68.53;103525.69;5041000;28;20143;-42
2023/02/14 01:25:27;;;;;;;54.50;24.60;;;;;;;8.52;67.87;103519.59;5044195;28;20517;-41
2023/02/14 01:27:52;;;;;;;49.55;24.65;;;;;;;8.51;68.28;103519.50;5043943;28;20040;-40
2023/02/14 01:30:18;;;;;;;54.25;23.75;;;;;;;8.49;68.28;103516.78;5040552;28;20054;-40
2023/02/14 01:32:43;;;;;;;50.33;23.80;;;;;;;8.45;68.10;103530.41;5045056;28;20182;-42
2023/02/14 01:35:09;;;;;;;47.50;23.10;;;;;;;8.42;68.04;103527.59;5041052;28;20041;-41
2023/02/14 01:37:35;;;;;;;45.92;22.02;;;;;;;8.37;67.96;103521.19;5044208;28;20463;-42
2023/02/14 01:40:01;;;;;;;48.97;23.88;;;;;;;8.32;67.83;103521.72;5039917;28;20182;-42
2023/02/14 01:42:27;;;;;;;47.67;22.77;;;;;;;8.26;67.34;103519.59;5043881;28;20091;-41
2023/02/14 01:44:54;;;;;;;46.83;23.10;;;;;;;8.19;67.73;103513.88;5043952;28;20043;-40
2023/02/14 01:47:20;;;;;;;47.25;23.42;;;;;;;8.09;67.41;103515.00;5040443;28;20095;-38
2023/02/14 01:49:54;;;;;;;41.85;22.63;;;;;;;7.81;67.61;103517.44;5043816;28;20029;-40
2023/02/14 01:52:30;;;;;;;47.95;23.13;;;;;;;7.81;67.65;103509.66;5039711;28;20082;-42
2023/02/14 01:55:03;;;;;;;47.28;23.13;;;;;;;7.82;67.78;103518.34;5039835;28;20048;-41
2023/02/14 01:57:41;;;;;;;50.50;23.20;;;;;;;7.79;67.45;103513.88;5043373;28;20121;-45
2023/02/14 02:02:52;;;;;;;44.30;21.65;;;;;;;7.62;67.40;103519.63;5043535;28;20087;-41
2023/02/14 02:05:22;;;;;;;49.10;22.52;;;;;;;7.60;67.43;103524.72;5040049;28;20045;-41
2023/02/14 02:07:51;;;;;;;46.85;22.15;;;;;;;7.60;67.47;103521.22;5043932;28;20037;-41
2023/02/14 02:10:17;;;;;;;48.88;22.88;;;;;;;7.62;67.66;103525.69;5042318;28;20033;-41
2023/02/14 02:12:43;;;;;;;49.67;23.35;;;;;;;7.65;67.72;103522.44;5046374;28;20033;-40
2023/02/14 02:15:08;;;;;;;44.92;22.63;;;;;;;7.63;67.73;103518.81;5041195;28;20494;-41
2023/02/14 02:18:21;;;;;;;46.28;22.52;;;;;;;7.47;68.04;103518.59;5043331;28;20055;-39
2023/02/14 02:20:58;;;;;;;47.33;22.08;;;;;;;7.41;67.49;103512.97;4958905;28;20154;-42
2023/02/14 02:23:51;;;;;;;47.33;22.17;;;;;;;7.37;67.57;103519.66;4958706;28;20412;-40
2023/02/14 02:27:07;;;;;;;43.47;20.92;;;;;;;7.31;67.70;103517.56;5022634;28;20437;-42
2023/02/14 02:29:58;;;;;;;44.33;21.67;;;;;;;7.23;67.83;103515.22;5014043;28;20119;-40
2023/02/14 02:33:02;;;;;;;46.03;21.58;;;;;;;7.23;67.27;103510.03;5042715;28;20041;-40
2023/02/14 02:35:45;;;;;;;44.08;20.90;;;;;;;7.18;67.58;103516.59;5039383;28;20107;-41
2023/02/14 02:38:38;;;;;;;49.13;23.25;;;;;;;7.09;68.05;103514.25;5040470;28;20039;-42
2023/02/14 02:41:03;;;;;;;49.47;21.67;;;;;;;7.07;67.78;103505.50;5040548;28;20099;-44
2023/02/14 02:43:58;;;;;;;45.35;21.23;;;;;;;7.09;67.66;103502.97;5037927;22;20045;-48
2023/02/14 02:46:48;;;;;;;48.05;23.13;;;;;;;7.12;68.00;103500.63;5021417;28;20029;-45
2023/02/14 02:53:02;;;;;;;46.40;21.25;;;;;;;7.06;67.56;103502.78;5020985;28;20048;-48
2023/02/14 02:56:44;;;;;;;46.30;22.10;;;;;;;6.99;67.86;103497.97;5021954;28;20029;-43
2023/02/14 02:58:23;;;;;;;46.80;21.70;;;;;;;6.86;68.03;103489.31;5020716;28;20040;-44
2023/02/14 03:00:52;;;;;;;44.75;21.63;;;;;;;6.89;68.01;103496.44;5025971;28;20038;-44
2023/02/14 03:06:04;;;;;;;50.58;22.83;;;;;;;6.79;68.42;103492.28;5021778;28;20575;-44
2023/02/14 03:08:30;;;;;;;48.38;21.50;;;;;;;6.88;67.88;103489.44;5025410;28;20157;-44
2023/02/14 03:10:56;;;;;;;49.67;23.52;;;;;;;6.95;68.05;103483.00;5025109;28;20069;-47
2023/02/14 03:13:40;;;;;;;45.88;22.70;;;;;;;6.76;68.34;103494.66;5003253;28;20033;-47
2023/02/14 03:16:20;;;;;;;44.17;22.00;;;;;;;6.84;67.83;103488.31;5021195;28;20044;-45
2023/02/14 03:19:15;;;;;;;44.22;22.15;;;;;;;6.76;68.52;103502.44;5025878;28;20037;-44
2023/02/14 03:21:59;;;;;;;43.78;21.17;;;;;;;6.83;68.01;103493.41;5023166;28;20037;-44
2023/02/14 03:24:44;;;;;;;46.83;21.93;;;;;;;6.87;67.86;103501.50;5022063;28;20403;-47
2023/02/14 03:27:24;;;;;;;50.55;23.50;;;;;;;6.80;68.22;103509.63;5020163;28;20037;-44
2023/02/14 03:30:17;;;;;;;48.00;22.98;;;;;;;6.72;68.41;103504.69;5023567;28;20179;-43
2023/02/14 03:33:00;;;;;;;49.00;21.83;;;;;;;6.77;68.18;103504.22;5020487;28;20041;-44
2023/02/14 03:35:52;;;;;;;50.55;23.25;;;;;;;6.81;68.12;103500.16;5020427;28;20041;-46
2023/02/14 03:38:34;;;;;;;48.95;22.67;;;;;;;6.90;68.10;103495.63;5020165;28;20053;-43
2023/02/14 03:41:04;;;;;;;48.00;22.52;;;;;;;6.87;68.32;103496.31;5002137;28;20041;-44
2023/02/14 03:43:34;;;;;;;48.97;22.25;;;;;;;6.81;68.04;103494.97;5024258;28;20441;-48
2023/02/14 03:46:25;;;;;;;46.17;21.52;;;;;;;6.74;68.04;103490.16;5020699;28;20050;-43
2023/02/14 03:48:53;;;;;;;47.65;21.45;;;;;;;6.72;67.89;103484.84;5023985;28;20041;-43
2023/02/14 03:51:22;;;;;;;47.65;21.25;;;;;;;6.68;67.55;103485.44;5021286;28;20030;-44
2023/02/14 03:53:52;;;;;;;47.33;21.70;;;;;;;6.61;67.91;103492.66;5029052;28;20399;-47
2023/02/14 03:56:47;;;;;;;45.80;21.55;;;;;;;6.52;68.00;103490.34;5008141;28;20052;-46
2023/02/14 03:59:16;;;;;;;48.20;21.38;;;;;;;6.58;68.04;103490.78;5026822;28;20041;-45
2023/02/14 04:01:45;;;;;;;44.92;20.55;;;;;;;6.57;67.53;103485.47;5027887;28;20033;-45
2023/02/14 04:04:14;;;;;;;44.85;21.65;;;;;;;6.51;68.19;103488.53;5023800;28;20095;-44
2023/02/14 04:06:39;;;;;;;49.75;22.67;;;;;;;6.49;67.90;103487.50;5027860;28;20121;-48
2023/02/14 04:09:04;;;;;;;44.83;21.52;;;;;;;6.57;67.96;103482.88;5028670;28;20132;-49
2023/02/14 04:11:33;;;;;;;45.10;22.42;;;;;;;6.56;68.36;103481.09;5033938;28;20095;-44
2023/02/14 04:13:59;;;;;;;48.70;21.75;;;;;;;6.59;68.06;103482.19;5029476;28;20120;-46
2023/02/14 04:16:24;;;;;;;48.22;23.02;;;;;;;6.66;68.04;103480.94;5033255;28;20156;-48
2023/02/14 04:21:34;;;;;;;44.22;22.23;;;;;;;6.73;68.20;103477.97;5028819;28;20044;-43
2023/02/14 04:23:59;;;;;;;46.78;22.30;;;;;;;6.78;68.13;103474.00;5027697;28;20038;-47
2023/02/14 04:26:24;;;;;;;47.00;23.10;;;;;;;6.78;68.40;103474.91;5030346;28;20057;-45
2023/02/14 04:28:49;;;;;;;46.92;22.27;;;;;;;6.85;68.40;103471.06;5030015;28;20037;-44
2023/02/14 04:31:16;;;;;;;47.58;22.20;;;;;;;6.91;68.28;103471.47;5026056;28;20091;-47
2023/02/14 04:33:41;;;;;;;50.97;23.45;;;;;;;6.93;68.32;103477.69;5030293;28;20057;-44
2023/02/14 04:36:06;;;;;;;52.05;24.38;;;;;;;6.89;68.02;103476.56;5025650;28;20037;-43
2023/02/14 04:38:32;;;;;;;48.88;23.15;;;;;;;6.86;67.99;103478.06;5027910;28;20037;-45
2023/02/14 04:40:57;;;;;;;48.85;23.92;;;;;;;6.87;68.24;103482.44;5024130;28;20084;-45
2023/02/14 04:43:23;;;;;;;48.55;23.15;;;;;;;6.88;68.12;103484.25;5028308;28;20065;-44
2023/02/14 04:45:48;;;;;;;45.90;22.60;;;;;;;6.82;68.33;103486.41;5028762;28;20047;-44
2023/02/14 04:48:14;;;;;;;45.22;23.05;;;;;;;6.87;67.92;103480.75;5025527;28;20072;-44
2023/02/14 04:50:39;;;;;;;49.58;23.13;;;;;;;6.93;68.85;103480.28;5030955;28;20122;-45
2023/02/14 04:53:04;;;;;;;49.90;22.83;;;;;;;6.98;68.53;103484.09;5026795;28;20088;-48
2023/02/14 04:55:29;;;;;;;44.78;21.42;;;;;;;6.99;68.53;103485.00;5029444;28;20053;-46
2023/02/14 04:57:55;;;;;;;47.80;24.00;;;;;;;7.04;68.67;103489.69;5024041;28;20601;-48
2023/02/14 05:00:21;;;;;;;48.70;23.52;;;;;;;7.01;68.58;103486.00;5027084;28;20120;-45
2023/02/14 05:02:46;;;;;;;51.72;24.73;;;;;;;6.98;68.66;103486.69;5026522;28;20083;-44
2023/02/14 05:05:11;;;;;;;48.80;23.83;;;;;;;6.99;68.58;103490.19;5022908;28;20109;-46
2023/02/14 05:07:37;;;;;;;47.00;22.63;;;;;;;6.96;68.45;103485.66;5026397;28;20124;-45
2023/02/14 05:10:04;;;;;;;44.72;22.38;;;;;;;6.93;68.45;103483.78;5022722;28;20129;-47
2023/02/14 05:12:29;;;;;;;44.47;22.77;;;;;;;6.93;68.34;103483.78;5029441;28;20040;-46
2023/02/14 05:14:56;;;;;;;45.70;22.92;;;;;;;6.98;68.71;103483.19;5029757;28;20045;-44
2023/02/14 05:17:22;;;;;;;48.47;23.65;;;;;;;6.92;68.58;103481.97;5026055;28;20407;-46
2023/02/14 05:19:47;;;;;;;47.10;22.23;;;;;;;6.95;68.23;103480.41;5011598;28;20041;-43
2023/02/14 05:22:12;;;;;;;47.17;22.30;;;;;;;6.95;68.42;103472.63;5026512;28;20060;-43
2023/02/14 05:24:38;;;;;;;46.30;22.25;;;;;;;6.95;68.42;103472.63;5027012;28;20165;-46
2023/02/14 05:27:03;;;;;;;50.83;22.80;;;;;;;6.93;68.76;103472.50;5022443;28;20095;-42
2023/02/14 05:29:28;;;;;;;51.40;23.23;;;;;;;6.97;68.75;103473.59;5025958;28;20057;-46
2023/02/14 05:31:54;;;;;;;50.08;23.40;;;;;;;6.95;68.93;103475.22;5025422;28;20495;-46
2023/02/14 05:34:19;;;;;;;51.40;23.33;;;;;;;6.98;68.76;103481.50;5022101;28;20135;-45
2023/02/14 05:36:44;;;;;;;48.72;24.08;;;;;;;7.00;68.87;103473.81;5026433;28;20415;-47
2023/02/14 05:39:13;;;;;;;55.60;24.55;;;;;;;6.97;68.53;103474.50;5022200;28;20044;-43
2023/02/14 05:41:38;;;;;;;52.10;24.95;;;;;;;6.91;68.87;103477.56;5025869;28;20037;-46
2023/02/14 05:44:04;;;;;;;57.92;26.27;;;;;;;6.92;68.96;103474.19;5021649;28;20040;-44
2023/02/14 05:46:29;;;;;;;56.13;25.95;;;;;;;6.93;68.90;103467.31;5025689;28;20034;-45
2023/02/14 05:48:54;;;;;;;59.05;26.98;;;;;;;6.95;68.63;103464.84;5022869;28;20056;-55
2023/02/14 05:51:20;;;;;;;59.85;25.92;;;;;;;6.93;68.86;103467.31;5024386;28;20037;-43
2023/02/14 05:53:45;;;;;;;59.45;26.08;;;;;;;6.96;68.81;103464.00;5027590;28;20034;-50
2023/02/14 05:56:10;;;;;;;55.78;25.45;;;;;;;6.99;68.92;103456.47;5027190;28;20074;-45
2023/02/14 05:58:35;;;;;;;53.80;25.20;;;;;;;7.00;68.87;103458.28;5028002;28;20042;-46
2023/02/14 06:01:01;;;;;;;51.03;23.67;;;;;;;6.98;68.90;103458.16;5023877;28;20099;-45
2023/02/14 06:03:26;;;;;;;51.97;24.25;;;;;;;7.00;68.60;103456.56;5027847;28;20037;-45
2023/02/14 06:05:52;;;;;;;54.63;24.92;;;;;;;6.96;68.91;103457.13;5028147;28;20026;-49
2023/02/14 06:08:17;;;;;;;52.22;23.17;;;;;;;6.96;68.71;103454.53;5023732;28;20071;-47
2023/02/14 06:10:42;;;;;;;51.83;22.65;;;;;;;6.95;68.86;103459.66;5025554;28;20060;-44
2023/02/14 06:13:09;;;;;;;48.67;23.15;;;;;;;6.90;68.87;103459.31;5021422;28;20444;-44
2023/02/14 06:15:35;;;;;;;58.75;29.17;;;;;;;6.82;69.04;103458.81;5025075;28;20038;-45
2023/02/14 06:18:01;;;;;;;59.97;28.80;;;;;;;6.75;68.92;103463.44;5021592;28;20041;-44
2023/02/14 06:20:27;;;;;;;55.80;26.17;;;;;;;6.74;68.36;103467.72;5007150;28;20043;-46
2023/02/14 06:22:53;;;;;;;54.63;24.90;;;;;;;6.73;68.56;103458.13;5023904;28;20045;-44
2023/02/14 06:25:19;;;;;;;51.92;24.13;;;;;;;6.74;68.70;103467.72;5020457;28;20116;-43
2023/02/14 06:27:45;;;;;;;49.53;23.70;;;;;;;6.74;68.80;103469.41;5024301;28;20472;-45
2023/02/14 06:30:11;;;;;;;47.47;23.02;;;;;;;6.73;68.76;103459.84;5020834;28;20033;-44
2023/02/14 06:32:37;;;;;;;48.33;22.70;;;;;;;6.76;68.75;103465.25;5024517;28;20124;-44
2023/02/14 06:35:03;;;;;;;49.42;23.00;;;;;;;6.77;68.69;103470.50;5020817;28;20116;-44
2023/02/14 06:37:28;;;;;;;51.85;24.42;;;;;;;6.76;68.70;103471.34;5025913;28;20387;-45
2023/02/14 06:39:53;;;;;;;53.22;24.05;;;;;;;6.72;68.89;103466.72;5026426;28;20045;-49
2023/02/14 06:42:19;;;;;;;54.53;24.83;;;;;;;6.80;68.98;103468.16;5020820;28;20045;-45
2023/02/14 06:44:44;;;;;;;56.15;25.42;;;;;;;6.80;69.10;103464.66;5026436;28;20034;-45
2023/02/14 06:47:10;;;;;;;48.92;24.27;;;;;;;6.83;69.09;103468.34;5022523;28;20438;-47
2023/02/14 06:49:35;;;;;;;56.28;25.40;;;;;;;6.85;68.87;103471.06;5029000;28;20228;-46
2023/02/14 06:52:01;;;;;;;57.67;25.73;;;;;;;6.81;69.20;103462.19;5027420;28;20032;-45
2023/02/14 06:54:26;;;;;;;56.55;24.70;;;;;;;6.84;68.91;103466.66;5027559;28;20057;-49
2023/02/14 06:56:51;;;;;;;51.35;24.45;;;;;;;6.82;68.84;103460.50;5026883;28;20453;-44
2023/02/14 06:59:17;;;;;;;49.53;23.58;;;;;;;6.83;69.00;103470.06;5004845;28;20605;-44
2023/02/14 07:01:42;;;;;;;50.38;23.85;;;;;;;6.80;68.86;103462.97;5008568;28;20029;-45
2023/02/14 07:04:07;;;;;;;53.72;23.38;;;;;;;6.83;69.05;103464.88;5021678;28;20041;-47
2023/02/14 07:06:35;;;;;;;50.20;24.60;;;;;;;6.83;68.97;103463.16;5024859;28;20522;-45
2023/02/14 07:09:00;;;;;;;50.97;24.52;;;;;;;6.90;69.04;103467.09;5020418;28;20046;-45
2023/02/14 07:11:27;;;;;;;53.35;24.02;;;;;;;6.92;69.28;103463.81;5006164;28;20030;-50
2023/02/14 07:13:52;;;;;;;53.33;25.35;;;;;;;6.89;69.46;103481.75;5024448;28;20532;-45
2023/02/14 07:16:18;;;;;;;53.75;24.60;;;;;;;6.96;69.40;103474.38;5021190;28;20057;-44
2023/02/14 07:18:43;;;;;;;61.08;26.25;;;;;;;6.87;70.09;103474.66;5024000;28;20507;-44
2023/02/14 07:21:08;;;;;;;60.28;28.02;;;;;;;6.78;70.43;103480.09;5020767;28;20246;-44
2023/02/14 07:23:34;;;;;;;56.97;26.17;;;;;;;6.91;70.40;103479.25;5016089;28;20654;-46
2023/02/14 07:26:00;;;;;;;61.55;28.90;;;;;;;6.83;70.17;103488.22;5017378;28;20044;-44
2023/02/14 07:28:25;;;;;;;60.53;27.90;;;;;;;6.79;70.25;103492.28;5023188;28;20033;-48
2023/02/14 07:30:50;;;;;;;57.40;26.30;;;;;;;6.83;70.04;103489.09;5022817;28;20037;-45
2023/02/14 07:33:16;;;;;;;56.72;26.38;;;;;;;6.86;69.75;103486.72;5019821;28;20630;-45
2023/02/14 07:35:41;;;;;;;57.08;26.88;;;;;;;6.89;69.77;103491.25;5023489;28;20567;-47
2023/02/14 07:38:06;;;;;;;57.28;25.90;;;;;;;6.89;69.53;103480.88;5019419;28;20033;-46
2023/02/14 07:40:32;;;;;;;61.28;28.48;;;;;;;6.79;69.45;103488.78;5023580;28;20025;-47
2023/02/14 07:42:59;;;;;;;54.05;28.27;;;;;;;6.60;70.01;103486.56;5016775;28;20026;-48
2023/02/14 07:45:25;;;;;;;56.75;26.33;;;;;;;6.79;70.00;103484.50;5003650;28;20026;-48
2023/02/14 07:47:53;;;;;;;59.10;27.23;;;;;;;6.90;69.71;103483.53;5003324;28;20042;-48
2023/02/14 07:50:20;;;;;;;53.90;25.63;;;;;;;6.92;69.58;103486.25;5000163;28;20036;-43
2023/02/14 07:52:45;;;;;;;56.13;26.08;;;;;;;6.87;69.50;103480.75;5004112;28;20200;-45
2023/02/14 07:55:11;;;;;;;56.95;26.63;;;;;;;6.88;69.85;103477.38;5000236;28;20037;-49
2023/02/14 07:57:36;;;;;;;55.65;26.50;;;;;;;6.95;69.95;103478.72;5003908;28;20022;-46
2023/02/14 08:00:04;;;;;;;57.60;26.70;;;;;;;6.85;69.84;103479.75;5000583;28;20033;-41
2023/02/14 08:02:29;;;;;;;55.58;27.05;;;;;;;6.98;69.89;103480.59;5005853;28;20176;-50
2023/02/14 08:04:55;;;;;;;54.28;26.15;;;;;;;7.02;70.06;103477.41;5004720;28;20088;-45
2023/02/14 08:07:21;;;;;;;59.88;26.40;;;;;;;7.08;70.19;103476.13;5001560;28;20030;-44
2023/02/14 08:09:46;;;;;;;56.13;27.50;;;;;;;7.12;70.37;103472.06;5004601;28;20030;-44
2023/02/14 08:16:03;;;;;;;57.30;26.98;;;;;;;7.51;70.27;103469.56;5005226;28;20041;-45
2023/02/14 08:17:40;;;;;;;62.08;28.15;;;;;;;7.71;70.82;103473.50;5000832;28;20096;-45
2023/02/14 08:20:06;;;;;;;63.35;28.60;;;;;;;7.91;70.88;103480.00;4998488;28;20511;-48
2023/02/14 08:22:32;;;;;;;61.28;28.02;;;;;;;8.13;70.74;103473.72;5004803;28;20508;-46
2023/02/14 08:24:57;;;;;;;65.93;28.92;;;;;;;8.30;70.91;103477.41;4980840;28;20065;-48
2023/02/14 08:27:22;;;;;;;64.53;29.30;;;;;;;8.38;70.83;103481.41;4984205;28;20034;-44
2023/02/14 08:29:47;;;;;;;60.83;28.35;;;;;;;8.58;71.01;103474.88;4984728;28;20456;-44
2023/02/14 08:32:14;;;;;;;62.25;29.63;;;;;;;8.69;70.85;103478.13;4981359;28;20385;-50
2023/02/14 08:34:40;;;;;;;61.17;29.25;;;;;;;8.77;70.77;103480.44;4984371;28;20035;-45
2023/02/14 08:37:05;;;;;;;62.25;29.00;;;;;;;8.93;70.64;103480.56;4981151;28;20046;-47
2023/02/14 08:39:31;;;;;;;61.10;28.30;;;;;;;9.04;70.27;103478.59;4985682;28;20552;-45
2023/02/14 08:41:57;;;;;;;61.90;29.00;;;;;;;9.15;70.10;103471.47;4996517;23;20061;-43
2023/02/14 08:44:22;;;;;;;61.78;29.75;;;;;;;9.21;69.89;103472.72;4935322;28;20055;-40
2023/02/14 08:46:47;;;;;;;59.28;29.13;;;;;;;9.33;69.93;103472.56;4944379;28;20101;-39
2023/02/14 08:49:13;;;;;;;61.90;30.27;;;;;;;9.39;69.61;103466.84;4941012;28;20035;-41
2023/02/14 08:51:38;;;;;;;60.58;29.05;;;;;;;9.35;68.97;103470.94;4944038;28;20047;-41
2023/02/14 08:54:03;;;;;;;60.90;29.73;;;;;;;9.50;69.34;103465.75;4940070;28;20039;-40
2023/02/14 08:56:29;;;;;;;60.25;30.15;;;;;;;9.55;69.36;103466.91;4943620;28;20043;-40
2023/02/14 08:58:54;;;;;;;61.47;30.50;;;;;;;9.55;68.75;103461.72;4943512;28;20094;-43
2023/02/14 09:01:19;;;;;;;64.00;30.30;;;;;;;9.65;68.65;103462.31;4939968;28;20185;-40
2023/02/14 09:03:45;;;;;;;57.58;29.58;;;;;;;9.51;68.30;103460.66;4942272;28;20043;-42
2023/02/14 09:06:13;;;;;;;56.22;29.33;;;;;;;9.73;68.38;103470.59;4939388;28;20032;-44
2023/02/14 09:08:40;;;;;;;57.72;30.35;;;;;;;9.86;68.59;103467.00;4942880;28;20035;-42
2023/02/14 09:11:17;;;;;;;56.83;29.10;;;;;;;10.00;67.86;103473.91;4938953;28;20043;-44
2023/02/14 09:13:44;;;;;;;59.78;30.15;;;;;;;10.04;67.93;103474.16;4942776;28;20208;-44
2023/02/14 09:16:11;;;;;;;58.22;29.80;;;;;;;10.16;67.47;103466.13;4939797;28;20035;-42
2023/02/14 09:18:37;;;;;;;55.53;30.40;;;;;;;10.13;67.08;103465.94;4943113;28;20035;-41
2023/02/14 09:21:07;;;;;;;56.63;30.08;;;;;;;9.97;66.21;103460.69;4939749;28;20051;-43
2023/02/14 09:23:33;;;;;;;58.63;30.85;;;;;;;10.21;66.94;103459.50;4944393;28;20039;-41
2023/02/14 09:26:00;;;;;;;53.13;29.20;;;;;;;10.41;66.14;103466.72;4941209;28;20401;-41
2023/02/14 09:28:25;;;;;;;54.22;29.75;;;;;;;10.39;66.02;103460.50;4943866;28;20528;-41
2023/02/14 09:30:51;;;;;;;50.90;28.33;;;;;;;10.55;66.21;103462.25;4943910;28;20075;-38
2023/02/14 09:33:16;;;;;;;55.72;28.70;;;;;;;10.71;65.81;103451.84;4940193;28;20031;-41
2023/02/14 09:35:41;;;;;;;56.28;29.42;;;;;;;10.72;65.32;103450.13;4943733;28;20443;-43
2023/02/14 09:38:10;;;;;;;51.05;29.73;;;;;;;10.82;64.92;103458.53;4939582;28;20278;-40
2023/02/14 09:40:35;;;;;;;51.45;28.45;;;;;;;10.94;64.97;103459.16;4943641;28;20046;-40
2023/02/14 09:43:15;;;;;;;55.90;29.70;;;;;;;11.00;64.83;103469.03;4940301;28;20051;-37
2023/02/14 09:45:45;;;;;;;53.42;28.77;;;;;;;11.11;64.61;103460.03;4944138;28;20031;-42
2023/02/14 09:48:29;;;;;;;49.92;27.90;;;;;;;11.26;64.19;103457.34;4940181;28;20047;-41
2023/02/14 09:50:59;;;;;;;51.25;28.70;;;;;;;11.37;63.85;103451.84;4939987;28;20471;-39
2023/02/14 09:53:28;;;;;;;56.13;30.77;;;;;;;11.35;63.33;103455.19;4942110;28;20100;-42
2023/02/14 09:56:11;;;;;;;54.30;30.48;;;;;;;11.53;63.39;103458.72;4944981;28;20043;-40
2023/02/14 09:58:48;;;;;;;53.53;29.63;;;;;;;11.44;62.70;103454.78;4940215;28;20413;-38
2023/02/14 10:01:35;;;;;;;54.15;29.38;;;;;;;11.61;62.12;103457.41;4938914;28;20497;-41
2023/02/14 10:04:03;;;;;;;56.47;31.17;;;;;;;11.57;62.19;103458.09;4938762;28;20035;-40
2023/02/14 10:06:46;;;;;;;54.00;30.70;;;;;;;11.63;62.18;103458.41;4942469;28;20050;-44
2023/02/14 10:09:22;;;;;;;57.35;32.17;;;;;;;11.62;61.95;103459.22;4942647;28;20098;-41
2023/02/14 10:11:49;;;;;;;55.15;31.02;;;;;;;11.74;62.13;103459.84;4938653;28;20580;-43
2023/02/14 10:14:18;;;;;;;58.95;32.28;;;;;;;11.35;62.36;103458.69;4939254;28;20347;-44
2023/02/14 10:17:18;;;;;;;59.15;32.00;;;;;;;11.74;61.89;103453.72;4942663;28;20092;-41
2023/02/14 10:19:48;;;;;;;56.50;30.48;;;;;;;11.81;62.25;103447.09;4938749;28;20054;-45
2023/02/14 10:22:25;;;;;;;56.65;31.27;;;;;;;11.91;61.67;103450.22;4938931;28;20035;-42
2023/02/14 10:25:02;;;;;;;54.78;30.35;;;;;;;12.00;61.55;103453.31;4943501;28;20043;-42
2023/02/14 10:27:41;;;;;;;54.28;29.92;;;;;;;12.11;61.45;103449.47;4939887;28;20515;-38
2023/02/14 10:30:18;;;;;;;55.53;29.50;;;;;;;12.26;61.60;103449.28;4938593;28;20043;-44
2023/02/14 10:32:51;;;;;;;54.28;30.02;;;;;;;12.30;61.93;103452.97;4945715;28;20046;-41
2023/02/14 10:35:45;;;;;;;55.30;29.92;;;;;;;12.30;60.87;103451.25;4943840;28;20035;-40
2023/02/14 10:38:17;;;;;;;57.33;30.63;;;;;;;12.23;59.96;103446.56;4942312;28;20111;-43
2023/02/14 10:41:21;;;;;;;54.50;29.98;;;;;;;12.32;59.64;103446.97;4941509;28;20043;-41
2023/02/14 10:44:21;;;;;;;53.33;29.33;;;;;;;12.50;59.81;103439.97;4918123;28;20386;-39
2023/02/14 10:47:31;;;;;;;52.92;30.15;;;;;;;12.17;59.51;103441.94;4931838;28;20043;-41
2023/02/14 10:50:10;;;;;;;55.35;29.23;;;;;;;12.51;59.64;103441.78;4933718;28;20043;-41
2023/02/14 10:52:42;;;;;;;53.80;30.20;;;;;;;12.42;58.99;103437.84;4943179;28;20035;-42
2023/02/14 10:55:22;;;;;;;53.20;29.20;;;;;;;12.69;59.78;103431.25;4938394;28;20081;-44
2023/02/14 10:57:52;;;;;;;53.25;30.30;;;;;;;12.72;59.06;103431.41;4942339;28;20031;-42
2023/02/14 11:00:27;;;;;;;57.40;30.92;;;;;;;12.66;58.11;103427.59;4937985;28;20035;-42
2023/02/14 11:02:56;;;;;;;54.95;31.75;;;;;;;12.55;58.41;103427.13;4940845;28;20039;-45
2023/02/14 11:05:40;;;;;;;55.42;31.23;;;;;;;12.65;58.64;103423.19;4938314;28;20473;-40
2023/02/14 11:08:13;;;;;;;52.20;29.75;;;;;;;12.89;58.66;103425.19;4939040;28;20043;-45
2023/02/14 11:10:38;;;;;;;55.90;30.70;;;;;;;12.95;58.67;103421.94;4942974;28;20046;-42
2023/02/14 11:13:27;;;;;;;52.25;30.23;;;;;;;13.03;57.99;103420.56;4939960;28;20039;-39
2023/02/14 11:15:57;;;;;;;55.15;30.88;;;;;;;13.04;58.10;103418.84;4942199;28;20077;-41
2023/02/14 11:18:24;;;;;;;52.85;30.70;;;;;;;13.15;57.89;103421.13;4939380;28;20050;-40
2023/02/14 11:21:05;;;;;;;52.85;30.85;;;;;;;13.21;57.20;103410.91;4943923;28;20035;-40
2023/02/14 11:23:42;;;;;;;57.20;30.63;;;;;;;13.29;57.51;103417.41;4941282;28;20527;-41
2023/02/14 11:26:15;;;;;;;57.00;31.83;;;;;;;13.26;56.77;103406.78;4941270;28;20036;-41
2023/02/14 11:28:51;;;;;;;51.75;29.52;;;;;;;13.37;57.24;103407.22;4943845;28;20386;-40
2023/02/14 11:31:25;;;;;;;49.50;29.17;;;;;;;13.35;57.10;103403.66;4940953;28;20047;-39
2023/02/14 11:33:53;;;;;;;50.15;29.80;;;;;;;13.49;56.46;103396.34;4944030;28;20043;-43
2023/02/14 11:36:19;;;;;;;53.40;30.25;;;;;;;13.56;56.37;103395.78;4941850;28;20085;-41
2023/02/14 11:38:53;;;;;;;53.25;30.40;;;;;;;13.76;55.87;103395.75;4945990;28;20070;-42
2023/02/14 11:41:18;;;;;;;;;;;;;;;13.72;55.44;103387.72;4942005;28;20089;-43
2023/02/14 11:43:44;;;;;;;;;;;;;;;13.80;55.41;103381.03;4946471;28;19918;-43
2023/02/14 11:46:14;;;;;;;;;;;;;;;13.89;55.20;103373.56;4944566;28;20465;-40